Time;durP1;ratioP1;P1;durP2;ratioP2;P2;SDS_P1;SDS_P2;PMS_P1;PMS_P2;Temp;Humidity;BMP_temperature;BMP_pressure;BME280_temperature;BME280_humidity;BME280_pressure;Samples;Min_cycle;Max_cycle;Signal;HPM_P1;HPM_P2
2022/03/20 00:02:17;;;;;;;13.82;3.70;;;;;;;;;;6241433;22;20012;-47
2022/03/20 00:04:43;;;;;;;17.08;4.30;;;;;;;;;;6242822;22;20020;-48
2022/03/20 00:07:11;;;;;;;12.95;3.83;;;;;;;;;;6242729;22;20019;-45
2022/03/20 00:09:36;;;;;;;14.85;4.13;;;;;;;;;;6244796;22;20012;-46
2022/03/20 00:12:02;;;;;;;17.45;4.03;;;;;;;;;;6241828;22;20035;-47
2022/03/20 00:14:27;;;;;;;10.55;4.28;;;;;;;;;;6243628;22;20008;-48
2022/03/20 00:16:53;;;;;;;13.43;4.03;;;;;;;;;;6241084;22;20012;-51
2022/03/20 00:19:19;;;;;;;10.13;3.65;;;;;;;;;;6239800;22;20090;-48
2022/03/20 00:21:44;;;;;;;9.40;4.25;;;;;;;;;;6239455;22;20011;-46
2022/03/20 00:24:09;;;;;;;15.00;3.55;;;;;;;;;;6243920;22;20020;-51
2022/03/20 00:26:35;;;;;;;14.15;4.10;;;;;;;;;;6241718;22;20065;-45
2022/03/20 00:29:00;;;;;;;12.07;4.18;;;;;;;;;;6244887;22;20449;-48
2022/03/20 00:31:25;;;;;;;11.52;3.92;;;;;;;;;;6241698;22;20016;-46
2022/03/20 00:33:51;;;;;;;17.15;3.55;;;;;;;;;;6244968;22;20019;-47
2022/03/20 00:36:16;;;;;;;11.98;3.67;;;;;;;;;;6241697;22;20836;-45
2022/03/20 00:38:41;;;;;;;10.52;3.08;;;;;;;;;;6242572;22;20020;-46
2022/03/20 00:41:07;;;;;;;12.32;3.83;;;;;;;;;;6242905;22;20023;-47
2022/03/20 00:43:32;;;;;;;9.00;3.97;;;;;;;;;;6243394;22;20772;-46
2022/03/20 00:45:57;;;;;;;13.40;3.75;;;;;;;;;;6243831;22;20043;-46
2022/03/20 00:48:23;;;;;;;12.68;3.30;;;;;;;;;;6241199;22;20012;-45
2022/03/20 00:50:48;;;;;;;15.52;3.40;;;;;;;;;;6243151;22;20040;-45
2022/03/20 00:53:13;;;;;;;9.63;3.35;;;;;;;;;;6240036;22;20452;-46
2022/03/20 00:55:38;;;;;;;11.13;4.47;;;;;;;;;;6244203;22;20012;-45
2022/03/20 00:58:04;;;;;;;13.35;4.45;;;;;;;;;;6242074;22;20025;-48
2022/03/20 01:00:29;;;;;;;16.20;3.63;;;;;;;;;;6243364;22;20012;-45
2022/03/20 01:02:55;;;;;;;8.77;3.80;;;;;;;;;;6243845;22;20031;-48
2022/03/20 01:05:20;;;;;;;12.63;3.78;;;;;;;;;;6241516;22;20075;-48
2022/03/20 01:07:46;;;;;;;8.68;3.33;;;;;;;;;;6244320;22;20063;-48
2022/03/20 01:10:12;;;;;;;15.27;3.90;;;;;;;;;;6242911;22;20012;-47
2022/03/20 01:12:39;;;;;;;18.70;3.83;;;;;;;;;;6243200;22;20073;-46
2022/03/20 01:15:06;;;;;;;16.63;4.15;;;;;;;;;;6242226;22;20008;-46
2022/03/20 01:17:31;;;;;;;8.65;3.22;;;;;;;;;;6241287;22;20051;-45
2022/03/20 01:19:56;;;;;;;15.38;3.42;;;;;;;;;;6242598;22;20477;-45
2022/03/20 01:22:22;;;;;;;5.05;2.78;;;;;;;;;;6243416;22;20013;-47
2022/03/20 01:24:47;;;;;;;16.35;5.68;;;;;;;;;;6241963;22;20009;-45
2022/03/20 01:27:13;;;;;;;14.13;3.83;;;;;;;;;;6243755;22;20038;-47
2022/03/20 01:29:38;;;;;;;11.52;3.78;;;;;;;;;;6241826;22;20004;-47
2022/03/20 01:32:04;;;;;;;15.18;3.80;;;;;;;;;;6243879;22;20010;-46
2022/03/20 01:34:29;;;;;;;9.90;3.35;;;;;;;;;;6241973;22;20016;-48
2022/03/20 01:36:54;;;;;;;12.43;3.95;;;;;;;;;;6243567;22;20028;-47
2022/03/20 01:39:20;;;;;;;13.38;3.85;;;;;;;;;;6241278;22;20008;-47
2022/03/20 01:41:47;;;;;;;12.32;3.22;;;;;;;;;;6244114;22;20008;-47
2022/03/20 01:44:12;;;;;;;8.80;2.85;;;;;;;;;;6240475;22;20016;-45
2022/03/20 01:46:38;;;;;;;10.32;3.25;;;;;;;;;;6245242;22;20031;-48
2022/03/20 01:49:03;;;;;;;6.10;3.05;;;;;;;;;;6245259;22;20040;-49
2022/03/20 01:54:13;;;;;;;8.65;3.20;;;;;;;;;;6243127;22;20775;-45
2022/03/20 01:56:46;;;;;;;16.75;3.63;;;;;;;;;;6245025;22;20024;-50
2022/03/20 01:59:11;;;;;;;9.77;3.90;;;;;;;;;;6240734;22;20028;-46
2022/03/20 02:01:36;;;;;;;16.45;4.65;;;;;;;;;;6243427;22;20118;-47
2022/03/20 02:04:02;;;;;;;11.43;3.47;;;;;;;;;;6242601;22;20000;-47
2022/03/20 02:06:27;;;;;;;11.75;4.30;;;;;;;;;;6240461;22;20042;-45
2022/03/20 02:08:56;;;;;;;12.13;3.55;;;;;;;;;;6244516;22;20390;-47
2022/03/20 02:11:22;;;;;;;12.38;4.35;;;;;;;;;;6244576;22;20020;-46
2022/03/20 02:13:48;;;;;;;11.52;3.15;;;;;;;;;;6244493;22;20035;-45
2022/03/20 02:16:13;;;;;;;14.25;2.83;;;;;;;;;;6244003;22;20031;-46
2022/03/20 02:18:39;;;;;;;9.82;3.60;;;;;;;;;;6244614;22;20034;-47
2022/03/20 02:21:05;;;;;;;9.38;3.47;;;;;;;;;;6244390;22;20489;-45
2022/03/20 02:23:34;;;;;;;7.97;3.78;;;;;;;;;;6242934;22;20046;-49
2022/03/20 02:26:03;;;;;;;12.23;3.72;;;;;;;;;;6245196;22;20008;-45
2022/03/20 02:28:28;;;;;;;12.23;3.38;;;;;;;;;;6243131;22;20004;-47
2022/03/20 02:30:53;;;;;;;8.52;3.60;;;;;;;;;;6244697;22;20022;-48
2022/03/20 02:33:22;;;;;;;9.30;3.38;;;;;;;;;;6243909;22;20024;-46
2022/03/20 02:35:48;;;;;;;13.38;4.93;;;;;;;;;;6244917;22;20451;-46
2022/03/20 02:38:14;;;;;;;8.90;3.50;;;;;;;;;;6244742;22;20020;-45
2022/03/20 02:40:39;;;;;;;9.60;3.90;;;;;;;;;;6235976;22;20622;-46
2022/03/20 02:43:06;;;;;;;5.53;3.08;;;;;;;;;;6240056;22;20008;-48
2022/03/20 02:45:31;;;;;;;9.75;4.28;;;;;;;;;;6243145;22;20614;-47
2022/03/20 02:47:58;;;;;;;13.57;3.90;;;;;;;;;;6242902;22;20074;-45
2022/03/20 02:50:29;;;;;;;14.32;3.65;;;;;;;;;;6123106;22;20030;-53
2022/03/20 02:52:56;;;;;;;9.32;3.63;;;;;;;;;;6114663;23;20010;-52
2022/03/20 02:55:26;;;;;;;11.05;3.28;;;;;;;;;;6123265;23;20034;-53
2022/03/20 02:57:52;;;;;;;13.40;3.63;;;;;;;;;;6167816;23;20048;-51
2022/03/20 03:00:21;;;;;;;13.68;3.75;;;;;;;;;;6154743;23;20017;-50
2022/03/20 03:02:47;;;;;;;6.43;3.40;;;;;;;;;;6152311;23;20044;-53
2022/03/20 03:05:14;;;;;;;10.38;3.33;;;;;;;;;;6154276;23;20013;-52
2022/03/20 03:13:08;;;;;;;7.60;3.67;;;;;;;;;;6155181;23;20028;-51
2022/03/20 03:15:34;;;;;;;9.15;3.50;;;;;;;;;;6151560;23;20679;-54
2022/03/20 03:18:00;;;;;;;8.70;3.28;;;;;;;;;;6155509;23;20029;-53
2022/03/20 03:20:25;;;;;;;4.97;2.92;;;;;;;;;;6151413;23;20100;-53
2022/03/20 03:22:51;;;;;;;7.15;3.42;;;;;;;;;;6154556;23;20020;-52
2022/03/20 03:25:16;;;;;;;18.90;4.60;;;;;;;;;;6152027;23;20101;-50
2022/03/20 03:27:42;;;;;;;10.70;4.28;;;;;;;;;;6141232;23;20208;-52
2022/03/20 03:30:07;;;;;;;10.30;3.50;;;;;;;;;;6153079;23;20037;-51
2022/03/20 03:32:32;;;;;;;11.32;4.32;;;;;;;;;;6153237;23;20036;-48
2022/03/20 03:37:41;;;;;;;15.10;4.60;;;;;;;;;;6150833;23;20023;-50
2022/03/20 03:40:10;;;;;;;5.28;3.47;;;;;;;;;;6154929;23;20045;-49
2022/03/20 03:42:36;;;;;;;16.02;4.38;;;;;;;;;;6150014;23;20057;-51
2022/03/20 03:45:02;;;;;;;7.03;3.83;;;;;;;;;;6154635;23;20010;-50
2022/03/20 03:47:28;;;;;;;9.80;3.60;;;;;;;;;;6152504;23;20088;-53
2022/03/20 03:49:54;;;;;;;6.45;2.97;;;;;;;;;;6161326;23;20044;-54
2022/03/20 03:52:19;;;;;;;10.65;3.45;;;;;;;;;;6181477;23;20481;-53
2022/03/20 03:54:44;;;;;;;14.95;3.55;;;;;;;;;;6183805;23;20009;-48
2022/03/20 03:57:10;;;;;;;13.05;2.95;;;;;;;;;;6181767;23;20016;-54
2022/03/20 03:59:35;;;;;;;6.65;3.75;;;;;;;;;;6156317;23;20009;-48
2022/03/20 04:02:01;;;;;;;10.32;3.22;;;;;;;;;;6177707;23;20064;-49
2022/03/20 04:04:26;;;;;;;8.20;3.65;;;;;;;;;;6181665;23;20485;-51
2022/03/20 04:06:52;;;;;;;9.05;3.67;;;;;;;;;;6182586;23;20076;-52
2022/03/20 04:09:17;;;;;;;9.90;2.75;;;;;;;;;;6182448;23;20017;-54
2022/03/20 04:11:42;;;;;;;16.85;3.80;;;;;;;;;;6183851;23;20005;-53
2022/03/20 04:14:08;;;;;;;6.95;4.03;;;;;;;;;;6183414;23;20457;-53
2022/03/20 04:16:33;;;;;;;14.30;3.22;;;;;;;;;;6181999;23;20081;-49
2022/03/20 04:18:59;;;;;;;13.32;4.32;;;;;;;;;;6182321;23;20068;-52
2022/03/20 04:21:24;;;;;;;7.93;3.25;;;;;;;;;;6183035;23;20036;-53
2022/03/20 04:23:49;;;;;;;7.63;3.45;;;;;;;;;;6182807;23;20116;-52
2022/03/20 04:26:20;;;;;;;9.57;3.88;;;;;;;;;;6183816;23;20271;-52
2022/03/20 04:28:46;;;;;;;6.78;3.17;;;;;;;;;;6183097;23;20031;-49
2022/03/20 04:31:15;;;;;;;19.05;3.65;;;;;;;;;;6182801;23;20009;-49
2022/03/20 04:33:50;;;;;;;6.32;3.35;;;;;;;;;;6182485;23;20010;-52
2022/03/20 04:36:16;;;;;;;5.88;3.15;;;;;;;;;;6182668;23;20032;-53
2022/03/20 04:38:41;;;;;;;9.40;3.22;;;;;;;;;;6182380;23;20017;-51
2022/03/20 04:41:06;;;;;;;11.27;4.05;;;;;;;;;;6181908;23;20016;-51
2022/03/20 04:43:32;;;;;;;6.50;2.63;;;;;;;;;;6181045;23;20065;-53
2022/03/20 04:45:57;;;;;;;8.52;3.28;;;;;;;;;;6181853;23;20004;-51
2022/03/20 04:59:19;;;;;;;6.28;3.17;;;;;;;;;;6181913;23;20024;-50
2022/03/20 05:01:44;;;;;;;6.32;2.83;;;;;;;;;;6183094;23;20021;-53
2022/03/20 05:04:11;;;;;;;13.73;5.13;;;;;;;;;;6181852;23;20009;-53
2022/03/20 05:06:36;;;;;;;9.35;4.13;;;;;;;;;;6183698;23;20013;-53
2022/03/20 05:14:30;;;;;;;17.17;4.35;;;;;;;;;;6184138;23;20031;-54
2022/03/20 05:16:55;;;;;;;10.88;3.85;;;;;;;;;;6182190;23;20016;-50
2022/03/20 05:19:20;;;;;;;11.50;3.22;;;;;;;;;;6184648;23;20047;-52
2022/03/20 05:21:48;;;;;;;6.43;2.33;;;;;;;;;;6183822;23;20069;-54
2022/03/20 05:24:14;;;;;;;7.35;3.58;;;;;;;;;;6185244;23;20070;-53
2022/03/20 05:26:40;;;;;;;13.00;3.97;;;;;;;;;;6183520;23;20017;-53
2022/03/20 05:29:05;;;;;;;13.45;4.07;;;;;;;;;;6186169;23;20017;-54
2022/03/20 05:31:30;;;;;;;13.95;5.05;;;;;;;;;;6181324;23;20009;-54
2022/03/20 05:33:55;;;;;;;11.73;3.60;;;;;;;;;;6186327;23;20009;-51
2022/03/20 05:36:21;;;;;;;6.32;3.97;;;;;;;;;;6183331;23;20040;-53
2022/03/20 05:38:46;;;;;;;10.50;3.90;;;;;;;;;;6159787;23;20011;-53
2022/03/20 05:43:55;;;;;;;21.45;4.05;;;;;;;;;;6185172;23;20753;-51
2022/03/20 05:46:20;;;;;;;13.90;5.03;;;;;;;;;;6182611;23;20009;-53
2022/03/20 05:48:46;;;;;;;9.65;3.78;;;;;;;;;;6184554;23;20017;-51
2022/03/20 05:51:15;;;;;;;16.33;3.72;;;;;;;;;;6183714;23;20076;-51
2022/03/20 05:53:40;;;;;;;20.15;4.43;;;;;;;;;;6184877;23;20017;-52
2022/03/20 05:58:49;;;;;;;12.07;4.35;;;;;;;;;;6173747;23;20040;-53
2022/03/20 06:01:15;;;;;;;14.55;6.03;;;;;;;;;;6179379;23;20076;-53
2022/03/20 06:03:40;;;;;;;15.02;5.47;;;;;;;;;;6153303;23;20009;-52
2022/03/20 06:06:07;;;;;;;12.18;4.30;;;;;;;;;;6179621;23;20009;-55
2022/03/20 06:08:33;;;;;;;15.77;4.72;;;;;;;;;;6178660;23;20017;-55
2022/03/20 06:10:58;;;;;;;12.90;5.70;;;;;;;;;;6180679;23;20016;-53
2022/03/20 06:13:25;;;;;;;22.98;5.78;;;;;;;;;;6179570;23;20017;-55
2022/03/20 06:15:50;;;;;;;19.38;6.40;;;;;;;;;;6179190;23;20009;-55
2022/03/20 06:18:15;;;;;;;15.32;3.97;;;;;;;;;;6179640;23;20028;-55
2022/03/20 06:20:40;;;;;;;12.20;4.55;;;;;;;;;;6180013;23;20065;-52
2022/03/20 06:23:05;;;;;;;6.95;4.25;;;;;;;;;;6180148;23;20013;-53
2022/03/20 06:25:31;;;;;;;10.20;5.15;;;;;;;;;;6177936;23;20020;-55
2022/03/20 06:27:59;;;;;;;17.52;5.10;;;;;;;;;;6182046;23;20025;-53
2022/03/20 06:30:25;;;;;;;19.85;4.50;;;;;;;;;;6184483;23;20017;-52
2022/03/20 06:32:50;;;;;;;11.57;4.20;;;;;;;;;;6182864;23;20508;-55
2022/03/20 06:35:18;;;;;;;16.13;5.32;;;;;;;;;;6184440;23;20027;-54
2022/03/20 06:37:44;;;;;;;14.30;4.97;;;;;;;;;;6182054;23;20152;-53
2022/03/20 06:40:11;;;;;;;13.65;4.22;;;;;;;;;;6181077;23;20020;-55
2022/03/20 06:42:36;;;;;;;17.33;4.70;;;;;;;;;;6181417;23;20009;-53
2022/03/20 06:45:03;;;;;;;9.55;4.18;;;;;;;;;;6180205;23;20039;-53
2022/03/20 06:47:31;;;;;;;13.32;4.97;;;;;;;;;;6179727;23;20048;-54
2022/03/20 06:49:57;;;;;;;25.17;5.18;;;;;;;;;;6180880;23;20041;-54
2022/03/20 06:52:22;;;;;;;14.57;4.45;;;;;;;;;;6179332;23;20021;-53
2022/03/20 06:54:49;;;;;;;12.75;5.47;;;;;;;;;;6180193;23;20601;-53
2022/03/20 06:57:16;;;;;;;12.27;5.13;;;;;;;;;;6178233;23;20029;-54
2022/03/20 06:59:41;;;;;;;15.13;5.68;;;;;;;;;;6179142;23;20211;-55
2022/03/20 07:02:07;;;;;;;9.45;4.25;;;;;;;;;;6179123;23;20061;-54
2022/03/20 07:04:32;;;;;;;10.23;4.50;;;;;;;;;;6169275;23;20005;-50
2022/03/20 07:06:59;;;;;;;14.85;4.18;;;;;;;;;;6175911;23;20040;-51
2022/03/20 07:09:24;;;;;;;7.55;3.85;;;;;;;;;;6179645;23;20020;-56
2022/03/20 07:11:49;;;;;;;9.68;4.32;;;;;;;;;;6181268;23;20033;-55
2022/03/20 07:14:15;;;;;;;11.20;4.65;;;;;;;;;;6178890;23;20298;-53
2022/03/20 07:16:43;;;;;;;18.70;5.38;;;;;;;;;;6179077;23;20031;-56
2022/03/20 07:19:09;;;;;;;9.60;4.40;;;;;;;;;;6179023;23;20017;-52
2022/03/20 07:21:34;;;;;;;15.40;6.05;;;;;;;;;;6148808;23;20058;-55
2022/03/20 07:24:00;;;;;;;13.77;5.53;;;;;;;;;;6151657;23;20014;-52
2022/03/20 07:31:53;;;;;;;10.70;4.60;;;;;;;;;;6180405;23;20020;-53
2022/03/20 07:34:19;;;;;;;18.00;4.35;;;;;;;;;;6181110;23;20017;-54
2022/03/20 07:36:44;;;;;;;10.63;4.47;;;;;;;;;;6180236;23;20036;-55
2022/03/20 07:39:09;;;;;;;9.52;4.93;;;;;;;;;;6179545;23;20016;-53
2022/03/20 07:41:34;;;;;;;11.95;4.32;;;;;;;;;;6181501;23;20005;-52
2022/03/20 07:44:00;;;;;;;16.10;4.72;;;;;;;;;;6176988;23;20013;-55
2022/03/20 07:46:25;;;;;;;12.18;4.90;;;;;;;;;;6151671;23;20024;-53
2022/03/20 07:48:50;;;;;;;14.68;5.07;;;;;;;;;;6180344;23;20037;-54
2022/03/20 07:51:17;;;;;;;14.00;4.47;;;;;;;;;;6179357;23;20076;-54
2022/03/20 07:53:43;;;;;;;9.75;4.35;;;;;;;;;;6153246;23;20017;-54
2022/03/20 07:56:08;;;;;;;10.60;5.20;;;;;;;;;;6181803;23;20021;-54
2022/03/20 07:58:34;;;;;;;12.10;3.83;;;;;;;;;;6179051;23;20031;-54
2022/03/20 08:00:59;;;;;;;15.65;4.43;;;;;;;;;;6179884;23;20025;-54
2022/03/20 08:03:25;;;;;;;6.18;4.20;;;;;;;;;;6179253;23;20017;-54
2022/03/20 08:05:50;;;;;;;9.80;4.82;;;;;;;;;;6180054;23;20589;-55
2022/03/20 08:08:16;;;;;;;11.45;4.43;;;;;;;;;;6179529;23;20040;-52
2022/03/20 08:10:42;;;;;;;11.45;5.07;;;;;;;;;;6178331;23;20013;-53
2022/03/20 08:13:09;;;;;;;9.80;4.45;;;;;;;;;;6179617;23;20005;-52
2022/03/20 08:15:35;;;;;;;20.52;6.28;;;;;;;;;;6179317;23;20005;-54
2022/03/20 08:18:00;;;;;;;15.27;4.93;;;;;;;;;;6180934;23;20012;-55
2022/03/20 08:20:25;;;;;;;8.43;4.57;;;;;;;;;;6180175;23;20032;-51
2022/03/20 08:22:52;;;;;;;16.45;5.57;;;;;;;;;;6179794;23;20442;-55
2022/03/20 08:25:17;;;;;;;10.10;4.35;;;;;;;;;;6181074;23;20017;-52
2022/03/20 08:27:43;;;;;;;12.45;5.55;;;;;;;;;;6182852;23;20032;-55
2022/03/20 08:30:13;;;;;;;13.05;5.05;;;;;;;;;;6182885;23;20341;-54
2022/03/20 08:32:38;;;;;;;;;;;;;;;;;;6183872;23;20013;-55
2022/03/20 08:35:04;;;;;;;10.10;5.15;;;;;;;;;;6182871;23;19904;-54
2022/03/20 08:37:31;;;;;;;12.35;5.43;;;;;;;;;;6176736;23;20057;-54
2022/03/20 08:39:56;;;;;;;10.75;5.57;;;;;;;;;;6170346;23;20009;-54
2022/03/20 08:42:22;;;;;;;10.23;4.60;;;;;;;;;;6180536;23;20048;-54
2022/03/20 08:44:50;;;;;;;13.57;6.20;;;;;;;;;;6178446;23;20064;-56
2022/03/20 08:47:16;;;;;;;14.25;4.53;;;;;;;;;;6184187;23;20029;-54
2022/03/20 08:49:41;;;;;;;10.45;6.15;;;;;;;;;;6180033;23;20105;-51
2022/03/20 08:52:06;;;;;;;10.35;4.70;;;;;;;;;;6184170;23;20001;-54
2022/03/20 08:54:32;;;;;;;12.90;4.68;;;;;;;;;;6183313;23;20064;-54
2022/03/20 08:56:57;;;;;;;16.45;5.28;;;;;;;;;;6186561;23;20337;-54
2022/03/20 08:59:22;;;;;;;6.65;4.50;;;;;;;;;;6178321;23;20040;-53
2022/03/20 09:01:47;;;;;;;15.57;6.15;;;;;;;;;;6182449;23;20012;-52
2022/03/20 09:04:12;;;;;;;15.20;5.38;;;;;;;;;;6180017;23;20017;-53
2022/03/20 09:06:43;;;;;;;10.02;4.93;;;;;;;;;;6176819;23;20029;-53
2022/03/20 09:09:09;;;;;;;11.10;6.00;;;;;;;;;;6177440;23;20101;-54
2022/03/20 09:11:35;;;;;;;15.52;5.93;;;;;;;;;;6175116;23;20027;-55
2022/03/20 09:14:00;;;;;;;9.60;4.85;;;;;;;;;;6151419;23;20009;-55
2022/03/20 09:19:10;;;;;;;7.45;4.70;;;;;;;;;;6180495;23;20044;-52
2022/03/20 09:21:36;;;;;;;12.55;5.78;;;;;;;;;;6179760;23;20043;-55
2022/03/20 09:24:02;;;;;;;13.85;6.50;;;;;;;;;;6180666;23;20033;-55
2022/03/20 09:26:28;;;;;;;16.05;5.53;;;;;;;;;;6173830;23;20299;-53
2022/03/20 09:28:54;;;;;;;13.40;5.63;;;;;;;;;;6179124;23;20016;-53
2022/03/20 09:31:19;;;;;;;16.27;6.75;;;;;;;;;;6179361;23;20043;-52
2022/03/20 09:33:45;;;;;;;16.75;5.70;;;;;;;;;;6178780;23;20005;-55
2022/03/20 09:36:10;;;;;;;13.32;6.53;;;;;;;;;;6180839;23;20045;-53
2022/03/20 09:38:36;;;;;;;10.50;6.80;;;;;;;;;;6206251;23;20013;-51
2022/03/20 09:41:03;;;;;;;16.17;6.15;;;;;;;;;;6181058;23;20013;-52
2022/03/20 09:43:30;;;;;;;12.55;6.10;;;;;;;;;;6179712;23;20080;-55
2022/03/20 09:45:55;;;;;;;15.40;5.97;;;;;;;;;;6178301;23;20057;-52
2022/03/20 09:48:21;;;;;;;7.90;5.95;;;;;;;;;;6162004;23;20032;-52
2022/03/20 09:50:47;;;;;;;13.73;5.18;;;;;;;;;;6178027;23;20044;-50
2022/03/20 09:53:12;;;;;;;12.63;6.00;;;;;;;;;;6154518;23;20390;-54
2022/03/20 09:55:38;;;;;;;15.00;6.22;;;;;;;;;;6182061;23;20104;-54
2022/03/20 09:58:03;;;;;;;10.90;5.38;;;;;;;;;;6184806;23;20313;-52
2022/03/20 10:00:30;;;;;;;14.25;6.53;;;;;;;;;;6181248;23;20013;-55
2022/03/20 10:02:56;;;;;;;13.57;5.45;;;;;;;;;;6185986;23;20040;-53
2022/03/20 10:05:22;;;;;;;12.13;5.80;;;;;;;;;;6181399;23;20016;-52
2022/03/20 10:07:47;;;;;;;12.73;6.90;;;;;;;;;;6185564;23;20024;-52
2022/03/20 10:10:17;;;;;;;11.43;5.07;;;;;;;;;;6182114;23;20013;-52
2022/03/20 10:12:47;;;;;;;14.20;5.30;;;;;;;;;;6184468;23;20066;-54
2022/03/20 10:15:31;;;;;;;14.45;5.78;;;;;;;;;;6176573;23;20072;-53
2022/03/20 10:18:06;;;;;;;10.07;5.35;;;;;;;;;;6180491;23;20005;-53
2022/03/20 10:20:35;;;;;;;9.60;5.38;;;;;;;;;;6179774;23;20055;-53
2022/03/20 10:23:01;;;;;;;9.15;5.65;;;;;;;;;;6206301;23;20009;-55
2022/03/20 10:25:26;;;;;;;11.15;4.97;;;;;;;;;;6182029;23;20048;-55
2022/03/20 10:27:57;;;;;;;14.85;6.55;;;;;;;;;;6180902;23;20021;-55
2022/03/20 10:30:22;;;;;;;19.40;5.40;;;;;;;;;;6182803;23;20013;-53
2022/03/20 10:32:48;;;;;;;11.25;6.15;;;;;;;;;;6181607;23;20017;-51
2022/03/20 10:35:14;;;;;;;18.25;6.95;;;;;;;;;;6182895;23;20009;-53
2022/03/20 10:37:55;;;;;;;12.38;6.30;;;;;;;;;;6182059;23;20092;-55
2022/03/20 10:40:24;;;;;;;15.95;6.07;;;;;;;;;;6182970;23;20017;-52
2022/03/20 10:43:09;;;;;;;12.18;6.53;;;;;;;;;;6182688;23;20024;-55
2022/03/20 10:45:50;;;;;;;15.68;5.53;;;;;;;;;;6183123;23;20013;-53
2022/03/20 10:48:16;;;;;;;13.90;6.28;;;;;;;;;;6156848;23;20472;-52
2022/03/20 10:50:46;;;;;;;20.48;7.13;;;;;;;;;;6180670;23;20021;-48
2022/03/20 10:53:11;;;;;;;;;;;;;;;;;;6184563;23;20088;-53
2022/03/20 10:55:37;;;;;;;12.13;5.15;;;;;;;;;;6181321;23;19911;-54
2022/03/20 10:58:23;;;;;;;14.75;6.10;;;;;;;;;;6184679;23;20015;-54
2022/03/20 11:00:48;;;;;;;13.93;6.65;;;;;;;;;;6182112;23;20069;-51
2022/03/20 11:03:21;;;;;;;9.85;5.57;;;;;;;;;;6182853;23;20013;-54
2022/03/20 11:05:46;;;;;;;15.15;6.50;;;;;;;;;;6181285;23;20016;-52
2022/03/20 11:08:12;;;;;;;12.32;5.93;;;;;;;;;;6182827;23;20025;-53
2022/03/20 11:10:38;;;;;;;11.45;5.78;;;;;;;;;;6181041;23;20032;-51
2022/03/20 11:13:04;;;;;;;9.63;6.47;;;;;;;;;;6183723;23;20024;-51
2022/03/20 11:15:32;;;;;;;8.93;6.30;;;;;;;;;;6181241;23;20020;-49
2022/03/20 11:17:58;;;;;;;11.80;6.22;;;;;;;;;;6183676;23;20040;-51
2022/03/20 11:20:24;;;;;;;14.52;6.25;;;;;;;;;;6180892;23;20108;-53
2022/03/20 11:22:50;;;;;;;12.65;5.75;;;;;;;;;;6183959;23;20009;-51
2022/03/20 11:25:20;;;;;;;16.63;6.20;;;;;;;;;;6179991;23;20021;-51
2022/03/20 11:27:46;;;;;;;9.10;5.68;;;;;;;;;;6183406;23;20025;-53
2022/03/20 11:30:13;;;;;;;14.27;5.97;;;;;;;;;;6181488;23;20463;-53
2022/03/20 11:32:39;;;;;;;12.32;6.40;;;;;;;;;;6182950;23;20091;-49
2022/03/20 11:35:05;;;;;;;13.77;5.57;;;;;;;;;;6182220;23;20020;-50
2022/03/20 11:37:47;;;;;;;12.45;6.13;;;;;;;;;;6182094;23;20021;-53
2022/03/20 11:40:19;;;;;;;9.95;5.25;;;;;;;;;;6184031;23;20353;-51
2022/03/20 11:42:45;;;;;;;10.40;6.07;;;;;;;;;;6181021;23;20013;-51
2022/03/20 11:45:12;;;;;;;11.20;5.80;;;;;;;;;;6182671;23;20017;-55
2022/03/20 11:47:38;;;;;;;10.00;5.40;;;;;;;;;;6179905;23;20021;-51
2022/03/20 11:50:06;;;;;;;11.98;6.40;;;;;;;;;;6150132;23;20044;-51
2022/03/20 11:52:50;;;;;;;8.20;5.40;;;;;;;;;;6153966;23;20023;-55
2022/03/20 11:55:34;;;;;;;10.57;5.88;;;;;;;;;;6154594;23;20390;-52
2022/03/20 11:58:05;;;;;;;12.05;5.80;;;;;;;;;;6182250;23;20013;-54
2022/03/20 12:00:31;;;;;;;12.07;5.03;;;;;;;;;;6179895;23;20115;-55
2022/03/20 12:03:15;;;;;;;8.98;5.28;;;;;;;;;;6185039;23;20013;-53
2022/03/20 12:05:41;;;;;;;11.45;5.65;;;;;;;;;;6181144;23;20024;-54
2022/03/20 12:08:09;;;;;;;17.05;7.75;;;;;;;;;;6158052;23;20037;-52
2022/03/20 12:10:36;;;;;;;11.30;5.20;;;;;;;;;;6177624;23;20013;-54
2022/03/20 12:13:08;;;;;;;13.13;5.50;;;;;;;;;;6183990;23;20013;-56
2022/03/20 12:15:40;;;;;;;13.90;5.25;;;;;;;;;;6178302;23;20578;-53
2022/03/20 12:18:09;;;;;;;13.18;6.38;;;;;;;;;;6182371;23;20313;-52
2022/03/20 12:20:52;;;;;;;9.50;5.83;;;;;;;;;;6180490;23;20056;-52
2022/03/20 12:23:30;;;;;;;13.73;5.32;;;;;;;;;;6174700;23;20005;-51
2022/03/20 12:25:58;;;;;;;9.20;5.85;;;;;;;;;;6177937;23;20506;-52
2022/03/20 12:28:27;;;;;;;11.82;6.20;;;;;;;;;;6173994;23;20356;-50
2022/03/20 12:30:52;;;;;;;9.95;5.60;;;;;;;;;;6178822;23;20016;-50
2022/03/20 12:33:22;;;;;;;12.77;6.38;;;;;;;;;;6176858;23;20073;-49
2022/03/20 12:35:47;;;;;;;13.10;6.65;;;;;;;;;;6175075;23;20080;-52
2022/03/20 12:38:31;;;;;;;8.27;4.88;;;;;;;;;;6153530;23;20005;-51
2022/03/20 12:41:04;;;;;;;16.20;6.22;;;;;;;;;;6175763;23;20374;-50
2022/03/20 12:43:30;;;;;;;11.02;4.82;;;;;;;;;;6179156;23;20028;-55
2022/03/20 12:45:57;;;;;;;21.02;5.88;;;;;;;;;;6175753;23;20719;-54
2022/03/20 12:48:22;;;;;;;13.65;6.07;;;;;;;;;;6180151;23;20033;-50
2022/03/20 12:50:52;;;;;;;9.23;5.10;;;;;;;;;;6176781;23;20056;-54
2022/03/20 12:53:18;;;;;;;10.82;4.88;;;;;;;;;;6179559;23;20021;-54
2022/03/20 12:55:47;;;;;;;11.93;5.57;;;;;;;;;;6177302;23;20013;-48
2022/03/20 12:58:14;;;;;;;10.10;5.07;;;;;;;;;;6177220;23;20013;-54
2022/03/20 13:00:40;;;;;;;9.60;5.55;;;;;;;;;;6176965;23;20036;-53
2022/03/20 13:03:10;;;;;;;6.95;4.65;;;;;;;;;;6178599;23;20101;-53
2022/03/20 13:05:35;;;;;;;;;;;;;;;;;;6151795;23;20033;-54
2022/03/20 13:08:03;;;;;;;13.68;5.75;;;;;;;;;;6177426;23;19908;-54
2022/03/20 13:10:39;;;;;;;7.63;4.63;;;;;;;;;;6148054;23;20023;-54
2022/03/20 13:13:05;;;;;;;7.20;4.57;;;;;;;;;;6177423;23;20036;-54
2022/03/20 13:15:32;;;;;;;8.60;3.80;;;;;;;;;;6175581;23;20013;-54
2022/03/20 13:17:58;;;;;;;11.70;5.72;;;;;;;;;;6177383;23;20070;-53
2022/03/20 13:20:30;;;;;;;10.68;4.47;;;;;;;;;;6177107;23;20409;-52
2022/03/20 13:22:59;;;;;;;8.73;4.55;;;;;;;;;;6175776;23;20077;-55
2022/03/20 13:25:25;;;;;;;9.35;4.25;;;;;;;;;;6175197;23;20040;-54
2022/03/20 13:27:54;;;;;;;8.77;4.43;;;;;;;;;;6175826;23;20021;-54
2022/03/20 13:30:21;;;;;;;8.23;5.03;;;;;;;;;;6175737;23;20027;-55
2022/03/20 13:32:55;;;;;;;7.85;4.15;;;;;;;;;;6175215;23;20006;-53
2022/03/20 13:35:20;;;;;;;10.38;5.70;;;;;;;;;;6175761;23;20021;-57
2022/03/20 13:37:46;;;;;;;12.20;5.53;;;;;;;;;;6177117;23;20020;-55
2022/03/20 13:40:12;;;;;;;10.75;4.88;;;;;;;;;;6177668;23;20016;-52
2022/03/20 13:42:39;;;;;;;9.05;4.85;;;;;;;;;;6175656;23;20028;-50
2022/03/20 13:45:05;;;;;;;9.93;4.30;;;;;;;;;;6177426;23;20009;-54
2022/03/20 13:47:31;;;;;;;10.35;5.00;;;;;;;;;;6176362;23;20043;-51
2022/03/20 13:49:59;;;;;;;13.48;5.50;;;;;;;;;;6178212;23;20040;-52
2022/03/20 13:52:33;;;;;;;10.50;4.63;;;;;;;;;;6177229;23;20269;-51
2022/03/20 13:55:04;;;;;;;14.68;5.40;;;;;;;;;;6179600;23;20016;-52
2022/03/20 13:57:30;;;;;;;11.50;5.68;;;;;;;;;;6177425;23;20009;-53
2022/03/20 13:59:57;;;;;;;8.10;5.07;;;;;;;;;;6178200;23;20033;-53
2022/03/20 14:02:25;;;;;;;10.13;5.93;;;;;;;;;;6175747;23;20009;-50
2022/03/20 14:04:52;;;;;;;11.10;5.45;;;;;;;;;;6175454;23;20036;-54
2022/03/20 14:07:21;;;;;;;10.80;5.78;;;;;;;;;;6175600;23;20025;-53
2022/03/20 14:09:47;;;;;;;11.10;5.63;;;;;;;;;;6175564;23;20072;-52
2022/03/20 14:12:22;;;;;;;9.40;4.90;;;;;;;;;;6173659;23;20017;-52
2022/03/20 14:14:47;;;;;;;6.78;4.82;;;;;;;;;;6176214;23;20012;-52
2022/03/20 14:17:13;;;;;;;7.18;4.75;;;;;;;;;;6175403;23;20021;-54
2022/03/20 14:19:48;;;;;;;7.07;4.43;;;;;;;;;;6175248;23;20016;-52
2022/03/20 14:22:14;;;;;;;10.50;5.03;;;;;;;;;;6175014;23;20020;-54
2022/03/20 14:24:52;;;;;;;14.65;5.30;;;;;;;;;;6176102;23;20081;-51
2022/03/20 14:27:24;;;;;;;9.35;4.63;;;;;;;;;;6151850;23;20045;-52
2022/03/20 14:40:55;;;;;;;7.35;4.70;;;;;;;;;;6178367;23;20020;-48
2022/03/20 14:43:28;;;;;;;9.77;4.75;;;;;;;;;;6179042;23;20013;-52
2022/03/20 14:45:55;;;;;;;9.23;4.80;;;;;;;;;;6176448;23;20017;-51
2022/03/20 14:48:22;;;;;;;7.72;4.93;;;;;;;;;;6173908;23;20097;-52
2022/03/20 14:50:47;;;;;;;9.18;4.75;;;;;;;;;;6176042;23;20040;-50
2022/03/20 14:53:24;;;;;;;12.70;5.05;;;;;;;;;;6178207;23;20020;-50
2022/03/20 14:55:50;;;;;;;8.30;4.55;;;;;;;;;;6177585;23;20882;-51
2022/03/20 14:58:16;;;;;;;10.48;5.18;;;;;;;;;;6203262;23;20092;-52
2022/03/20 15:00:42;;;;;;;14.48;5.40;;;;;;;;;;6179741;23;20012;-51
2022/03/20 15:03:07;;;;;;;6.80;4.90;;;;;;;;;;6181399;23;20009;-54
2022/03/20 15:05:33;;;;;;;12.10;5.82;;;;;;;;;;6177977;23;20013;-53
2022/03/20 15:13:36;;;;;;;7.60;4.70;;;;;;;;;;6176978;23;20019;-52
2022/03/20 15:16:01;;;;;;;13.00;5.75;;;;;;;;;;6178711;23;20344;-52
2022/03/20 15:18:27;;;;;;;11.60;4.80;;;;;;;;;;6178779;23;20016;-53
2022/03/20 15:20:54;;;;;;;13.43;7.55;;;;;;;;;;6152063;23;20009;-51
2022/03/20 15:23:19;;;;;;;18.23;10.75;;;;;;;;;;6179270;23;20013;-54
2022/03/20 15:25:45;;;;;;;36.67;17.35;;;;;;;;;;6173785;23;20040;-55
2022/03/20 15:28:10;;;;;;;12.32;8.13;;;;;;;;;;6176018;23;20025;-53
2022/03/20 15:30:36;;;;;;;11.60;6.60;;;;;;;;;;6173453;23;20009;-52
2022/03/20 15:33:02;;;;;;;14.70;6.03;;;;;;;;;;6179385;23;20013;-55